ADDS TAF Board (Experimental) INFO Settings
IDs: Format: Expanded Condensed

KDFW - Dallas-Ft Worth Intl, TX, US

Issued at 0520 UTC 01 Sep 2016
Updated at 0537 UTC 01 Sep 2016
Time0453Z 01/06Z 01/07Z 01/08Z 01/09Z 01/10Z 01/11Z 01/12Z 01/13Z 01/14Z 01/15Z 01/16Z 01/17Z 01/18Z
Type OBS PRVL PRVL PRVL PRVL PRVL PRVL PRVL PRVL PRVL PRVL PRVL PRVL PRVL
VIS 10 >6 >6 >6 >6 >6 >6 >6 >6 >6 >6 >6 >6 >6
CIG 60 -- -- -- -- -- -- -- -- -- -- -- -- 50
Cover BKN SCT SCT SCT SCT SCT SCT SCT SCT SCT SCT SCT SCT BKN
FltCat VFR VFR VFR VFR VFR VFR VFR VFR VFR VFR VFR VFR VFR VFR
WX -- VCSH VCSH -- -- -- -- -- -- -- -- -- -- VCTS
WDir 340 20 20 20 20 20 20 20 20 20 20 20 20 30
WSpd 8 5 5 6 6 6 6 6 6 6 6 6 6 9
WGst -- -- -- -- -- -- -- -- -- -- -- -- -- --
R13/31
XWnd 3 5 5 5 5 5 5 5 5 5 5 5 5 9
HWnd -7 -2 -2 -3 -3 -3 -3 -3 -3 -3 -3 -3 -3 -2
R17/35
XWnd -3 2 2 2 2 2 2 2 2 2 2 2 2 5
HWnd -8 -5 -5 -6 -6 -6 -6 -6 -6 -6 -6 -6 -6 -8
R18/36
XWnd -3 2 2 2 2 2 2 2 2 2 2 2 2 5
HWnd -8 -5 -5 -6 -6 -6 -6 -6 -6 -6 -6 -6 -6 -8

Raw TAF
KDFW 010520Z 0106/0212 02005KT P6SM VCSH SCT060
  FM010800 02006KT P6SM SCT250
  FM011800 03009KT P6SM VCTS BKN050CB
  FM020100 03008KT P6SM VCSH BKN050 BKN150
  FM020300 01006KT P6SM SCT050 BKN250


Raw METAR
KDFW 010453Z 34008KT 10SM BKN060 BKN250 29/22 A2999 RMK AO2 SLP144 OCNL LTGIC DSNT SW CB DSNT SW MOV SW T02890222
KDFW 010353Z 03006KT 10SM FEW060 SCT080 BKN120 29/21 A2998 RMK AO2 LTG DSNT SW SLP142 T02940211
KDFW 010253Z 35004KT 10SM BKN070 29/21 A2996 RMK AO2 SLP137 T02940211 53019

METAR Board
Radar Display
Forecast Discussion

TAF Board Legend

Potential Impact
Threat None Slight Moderate High
Visibility (sm) ≥5.1 5.1>X≥3 3>X≥1 <1
Ceiling (100 ft) ≥30.1 30.1>X≥10 10>X≥5 <5
Wind Speed (kt) <10 10≤X<20 20≤X<30 ≥30
Wind Gust (kt) <15 15≤X<25 25≤X<35 ≥35
Weather No Wx Reported VCTS,-TS,-FZRA,SN TS,FZRA +TS,+FZRA,+SN